sensor_id;sensor_type;location;lat;lon;timestamp;P1;durP1;ratioP1;P2;durP2;ratioP2
68126;SDS011;54931;52.098;21.006;2023-06-14T00:02:23;16.10;;;10.50;;
68126;SDS011;54931;52.098;21.006;2023-06-14T00:04:51;17.80;;;10.60;;
68126;SDS011;54931;52.098;21.006;2023-06-14T00:07:22;14.50;;;8.80;;
68126;SDS011;54931;52.098;21.006;2023-06-14T00:10:11;14.00;;;9.40;;
68126;SDS011;54931;52.098;21.006;2023-06-14T00:12:39;18.90;;;9.50;;
68126;SDS011;54931;52.098;21.006;2023-06-14T00:15:08;13.60;;;9.00;;
68126;SDS011;54931;52.098;21.006;2023-06-14T00:17:39;16.40;;;10.10;;
68126;SDS011;54931;52.098;21.006;2023-06-14T00:20:07;17.10;;;10.40;;
68126;SDS011;54931;52.098;21.006;2023-06-14T00:22:35;15.40;;;9.70;;
68126;SDS011;54931;52.098;21.006;2023-06-14T00:25:04;15.90;;;9.20;;
68126;SDS011;54931;52.098;21.006;2023-06-14T00:27:33;17.90;;;10.40;;
68126;SDS011;54931;52.098;21.006;2023-06-14T00:30:00;15.70;;;10.50;;
68126;SDS011;54931;52.098;21.006;2023-06-14T00:32:28;15.20;;;9.60;;
68126;SDS011;54931;52.098;21.006;2023-06-14T00:34:56;17.60;;;10.00;;
68126;SDS011;54931;52.098;21.006;2023-06-14T00:37:24;18.10;;;9.20;;
68126;SDS011;54931;52.098;21.006;2023-06-14T00:39:52;18.70;;;11.20;;
68126;SDS011;54931;52.098;21.006;2023-06-14T00:42:27;17.00;;;10.10;;
68126;SDS011;54931;52.098;21.006;2023-06-14T00:44:55;18.00;;;10.90;;
68126;SDS011;54931;52.098;21.006;2023-06-14T00:47:23;15.10;;;9.30;;
68126;SDS011;54931;52.098;21.006;2023-06-14T00:49:51;16.40;;;10.60;;
68126;SDS011;54931;52.098;21.006;2023-06-14T00:52:22;18.10;;;10.40;;
68126;SDS011;54931;52.098;21.006;2023-06-14T00:54:51;18.20;;;11.20;;
68126;SDS011;54931;52.098;21.006;2023-06-14T00:57:19;19.00;;;11.70;;
68126;SDS011;54931;52.098;21.006;2023-06-14T00:59:49;17.50;;;10.80;;
68126;SDS011;54931;52.098;21.006;2023-06-14T01:02:17;13.70;;;9.90;;
68126;SDS011;54931;52.098;21.006;2023-06-14T01:04:46;15.60;;;10.40;;
68126;SDS011;54931;52.098;21.006;2023-06-14T01:15:38;20.60;;;11.40;;
68126;SDS011;54931;52.098;21.006;2023-06-14T01:18:07;17.80;;;11.40;;
68126;SDS011;54931;52.098;21.006;2023-06-14T01:20:35;21.30;;;11.50;;
68126;SDS011;54931;52.098;21.006;2023-06-14T01:23:05;17.90;;;11.90;;
68126;SDS011;54931;52.098;21.006;2023-06-14T01:25:33;17.40;;;11.50;;
68126;SDS011;54931;52.098;21.006;2023-06-14T01:28:04;20.00;;;11.70;;
68126;SDS011;54931;52.098;21.006;2023-06-14T01:30:40;18.20;;;11.60;;
68126;SDS011;54931;52.098;21.006;2023-06-14T01:33:17;18.20;;;11.10;;
68126;SDS011;54931;52.098;21.006;2023-06-14T01:35:51;16.30;;;11.30;;
68126;SDS011;54931;52.098;21.006;2023-06-14T01:38:21;22.70;;;12.10;;
68126;SDS011;54931;52.098;21.006;2023-06-14T01:40:53;20.90;;;11.70;;
68126;SDS011;54931;52.098;21.006;2023-06-14T01:43:23;21.40;;;12.90;;
68126;SDS011;54931;52.098;21.006;2023-06-14T01:45:54;22.50;;;13.00;;
68126;SDS011;54931;52.098;21.006;2023-06-14T01:48:23;20.30;;;13.00;;
68126;SDS011;54931;52.098;21.006;2023-06-14T01:50:52;20.90;;;13.20;;
68126;SDS011;54931;52.098;21.006;2023-06-14T01:53:20;23.30;;;14.10;;
68126;SDS011;54931;52.098;21.006;2023-06-14T01:55:48;21.50;;;13.20;;
68126;SDS011;54931;52.098;21.006;2023-06-14T01:58:16;24.80;;;13.70;;
68126;SDS011;54931;52.098;21.006;2023-06-14T02:00:43;25.40;;;15.20;;
68126;SDS011;54931;52.098;21.006;2023-06-14T02:03:12;23.30;;;14.20;;
68126;SDS011;54931;52.098;21.006;2023-06-14T02:05:40;26.40;;;15.70;;
68126;SDS011;54931;52.098;21.006;2023-06-14T02:08:09;29.50;;;17.00;;
68126;SDS011;54931;52.098;21.006;2023-06-14T02:10:37;25.50;;;16.00;;
68126;SDS011;54931;52.098;21.006;2023-06-14T02:13:04;26.90;;;15.40;;
68126;SDS011;54931;52.098;21.006;2023-06-14T02:15:32;25.60;;;16.30;;
68126;SDS011;54931;52.098;21.006;2023-06-14T02:18:03;26.70;;;15.20;;
68126;SDS011;54931;52.098;21.006;2023-06-14T02:20:31;23.70;;;15.10;;
68126;SDS011;54931;52.098;21.006;2023-06-14T02:23:00;24.70;;;14.40;;
68126;SDS011;54931;52.098;21.006;2023-06-14T02:25:28;23.40;;;13.60;;
68126;SDS011;54931;52.098;21.006;2023-06-14T02:27:56;23.10;;;14.50;;
68126;SDS011;54931;52.098;21.006;2023-06-14T02:30:23;20.20;;;13.30;;
68126;SDS011;54931;52.098;21.006;2023-06-14T02:32:51;20.80;;;13.40;;
68126;SDS011;54931;52.098;21.006;2023-06-14T02:35:20;21.50;;;13.20;;
68126;SDS011;54931;52.098;21.006;2023-06-14T02:37:49;20.70;;;13.20;;
68126;SDS011;54931;52.098;21.006;2023-06-14T02:40:19;24.60;;;13.70;;
68126;SDS011;54931;52.098;21.006;2023-06-14T02:42:47;24.10;;;14.00;;
68126;SDS011;54931;52.098;21.006;2023-06-14T02:45:15;21.80;;;13.10;;
68126;SDS011;54931;52.098;21.006;2023-06-14T02:47:43;22.40;;;12.90;;
68126;SDS011;54931;52.098;21.006;2023-06-14T02:50:10;18.90;;;12.90;;
68126;SDS011;54931;52.098;21.006;2023-06-14T02:52:38;20.80;;;13.10;;
68126;SDS011;54931;52.098;21.006;2023-06-14T02:55:08;18.60;;;11.70;;
68126;SDS011;54931;52.098;21.006;2023-06-14T02:57:36;17.40;;;11.10;;
68126;SDS011;54931;52.098;21.006;2023-06-14T03:00:06;22.30;;;12.20;;
68126;SDS011;54931;52.098;21.006;2023-06-14T03:02:37;20.90;;;13.10;;
68126;SDS011;54931;52.098;21.006;2023-06-14T03:05:06;24.10;;;13.70;;
68126;SDS011;54931;52.098;21.006;2023-06-14T03:07:35;19.20;;;11.90;;
68126;SDS011;54931;52.098;21.006;2023-06-14T03:10:08;21.60;;;12.50;;
68126;SDS011;54931;52.098;21.006;2023-06-14T03:12:36;18.80;;;11.70;;
68126;SDS011;54931;52.098;21.006;2023-06-14T03:15:05;19.90;;;12.10;;
68126;SDS011;54931;52.098;21.006;2023-06-14T03:17:33;19.00;;;12.40;;
68126;SDS011;54931;52.098;21.006;2023-06-14T03:20:02;16.40;;;11.10;;
68126;SDS011;54931;52.098;21.006;2023-06-14T03:22:31;18.50;;;12.00;;
68126;SDS011;54931;52.098;21.006;2023-06-14T03:25:01;17.80;;;11.40;;
68126;SDS011;54931;52.098;21.006;2023-06-14T03:27:31;18.90;;;11.90;;
68126;SDS011;54931;52.098;21.006;2023-06-14T03:29:59;18.10;;;11.90;;
68126;SDS011;54931;52.098;21.006;2023-06-14T03:32:28;15.60;;;10.90;;
68126;SDS011;54931;52.098;21.006;2023-06-14T03:34:55;20.20;;;12.20;;
68126;SDS011;54931;52.098;21.006;2023-06-14T03:37:23;18.80;;;12.40;;
68126;SDS011;54931;52.098;21.006;2023-06-14T03:39:51;18.50;;;11.40;;
68126;SDS011;54931;52.098;21.006;2023-06-14T03:42:19;21.60;;;12.80;;
68126;SDS011;54931;52.098;21.006;2023-06-14T03:44:47;20.60;;;11.70;;
68126;SDS011;54931;52.098;21.006;2023-06-14T03:47:18;20.90;;;12.00;;
68126;SDS011;54931;52.098;21.006;2023-06-14T03:49:45;17.90;;;11.50;;
68126;SDS011;54931;52.098;21.006;2023-06-14T03:52:13;20.20;;;12.20;;
68126;SDS011;54931;52.098;21.006;2023-06-14T03:54:41;19.50;;;12.00;;
68126;SDS011;54931;52.098;21.006;2023-06-14T03:57:11;20.80;;;13.00;;
68126;SDS011;54931;52.098;21.006;2023-06-14T03:59:38;18.80;;;12.00;;
68126;SDS011;54931;52.098;21.006;2023-06-14T04:02:06;19.00;;;11.60;;
68126;SDS011;54931;52.098;21.006;2023-06-14T04:04:34;17.90;;;11.30;;
68126;SDS011;54931;52.098;21.006;2023-06-14T04:07:03;15.30;;;10.80;;
68126;SDS011;54931;52.098;21.006;2023-06-14T04:09:31;20.20;;;10.20;;
68126;SDS011;54931;52.098;21.006;2023-06-14T04:11:58;16.10;;;10.30;;
68126;SDS011;54931;52.098;21.006;2023-06-14T04:14:26;15.30;;;9.90;;
68126;SDS011;54931;52.098;21.006;2023-06-14T04:16:54;14.40;;;10.20;;
68126;SDS011;54931;52.098;21.006;2023-06-14T04:19:22;16.20;;;10.40;;
68126;SDS011;54931;52.098;21.006;2023-06-14T04:21:50;16.10;;;9.50;;
68126;SDS011;54931;52.098;21.006;2023-06-14T04:24:18;14.00;;;9.80;;
68126;SDS011;54931;52.098;21.006;2023-06-14T04:26:46;18.30;;;9.30;;
68126;SDS011;54931;52.098;21.006;2023-06-14T04:29:15;16.20;;;9.90;;
68126;SDS011;54931;52.098;21.006;2023-06-14T04:31:43;18.40;;;10.00;;
68126;SDS011;54931;52.098;21.006;2023-06-14T04:34:30;15.80;;;9.50;;
68126;SDS011;54931;52.098;21.006;2023-06-14T04:37:18;15.00;;;9.40;;
68126;SDS011;54931;52.098;21.006;2023-06-14T04:39:45;15.20;;;9.70;;
68126;SDS011;54931;52.098;21.006;2023-06-14T04:42:13;13.10;;;9.40;;
68126;SDS011;54931;52.098;21.006;2023-06-14T04:44:42;17.10;;;9.90;;
68126;SDS011;54931;52.098;21.006;2023-06-14T04:47:10;16.40;;;10.10;;
68126;SDS011;54931;52.098;21.006;2023-06-14T04:49:43;14.30;;;9.40;;
68126;SDS011;54931;52.098;21.006;2023-06-14T04:52:13;13.00;;;9.00;;
68126;SDS011;54931;52.098;21.006;2023-06-14T04:54:40;12.70;;;8.90;;
68126;SDS011;54931;52.098;21.006;2023-06-14T04:57:09;14.20;;;9.10;;
68126;SDS011;54931;52.098;21.006;2023-06-14T04:59:41;13.80;;;9.00;;
68126;SDS011;54931;52.098;21.006;2023-06-14T05:02:08;16.00;;;9.50;;
68126;SDS011;54931;52.098;21.006;2023-06-14T05:04:36;13.60;;;9.10;;
68126;SDS011;54931;52.098;21.006;2023-06-14T05:07:09;14.80;;;8.90;;
68126;SDS011;54931;52.098;21.006;2023-06-14T05:09:39;15.90;;;10.00;;
68126;SDS011;54931;52.098;21.006;2023-06-14T05:12:07;14.50;;;8.80;;
68126;SDS011;54931;52.098;21.006;2023-06-14T05:14:36;13.40;;;8.80;;
68126;SDS011;54931;52.098;21.006;2023-06-14T05:17:04;14.80;;;9.20;;
68126;SDS011;54931;52.098;21.006;2023-06-14T05:19:32;12.90;;;9.50;;
68126;SDS011;54931;52.098;21.006;2023-06-14T05:22:00;16.20;;;9.60;;
68126;SDS011;54931;52.098;21.006;2023-06-14T05:24:28;13.10;;;9.30;;
68126;SDS011;54931;52.098;21.006;2023-06-14T05:26:57;14.30;;;9.30;;
68126;SDS011;54931;52.098;21.006;2023-06-14T05:29:26;17.90;;;9.50;;
68126;SDS011;54931;52.098;21.006;2023-06-14T05:31:54;13.80;;;8.60;;
68126;SDS011;54931;52.098;21.006;2023-06-14T05:34:22;13.80;;;8.50;;
68126;SDS011;54931;52.098;21.006;2023-06-14T05:36:49;17.20;;;8.70;;
68126;SDS011;54931;52.098;21.006;2023-06-14T05:39:17;15.80;;;9.30;;
68126;SDS011;54931;52.098;21.006;2023-06-14T05:41:44;14.90;;;8.00;;
68126;SDS011;54931;52.098;21.006;2023-06-14T05:44:12;13.10;;;8.50;;
68126;SDS011;54931;52.098;21.006;2023-06-14T05:46:40;14.40;;;8.60;;
68126;SDS011;54931;52.098;21.006;2023-06-14T05:49:08;14.10;;;8.40;;
68126;SDS011;54931;52.098;21.006;2023-06-14T05:51:35;14.20;;;8.20;;
68126;SDS011;54931;52.098;21.006;2023-06-14T05:54:03;11.30;;;8.50;;
68126;SDS011;54931;52.098;21.006;2023-06-14T05:56:30;14.90;;;8.60;;
68126;SDS011;54931;52.098;21.006;2023-06-14T05:58:58;12.90;;;8.70;;
68126;SDS011;54931;52.098;21.006;2023-06-14T06:01:26;12.00;;;8.00;;
68126;SDS011;54931;52.098;21.006;2023-06-14T06:03:53;10.30;;;7.20;;
68126;SDS011;54931;52.098;21.006;2023-06-14T06:06:21;12.00;;;8.40;;
68126;SDS011;54931;52.098;21.006;2023-06-14T06:08:49;13.80;;;8.30;;
68126;SDS011;54931;52.098;21.006;2023-06-14T06:11:17;11.80;;;8.20;;
68126;SDS011;54931;52.098;21.006;2023-06-14T06:13:45;13.40;;;8.50;;
68126;SDS011;54931;52.098;21.006;2023-06-14T06:16:13;11.30;;;7.70;;
68126;SDS011;54931;52.098;21.006;2023-06-14T06:18:42;11.70;;;7.80;;
68126;SDS011;54931;52.098;21.006;2023-06-14T06:21:10;12.90;;;8.10;;
68126;SDS011;54931;52.098;21.006;2023-06-14T06:23:37;13.10;;;7.80;;
68126;SDS011;54931;52.098;21.006;2023-06-14T06:26:05;13.00;;;7.40;;
68126;SDS011;54931;52.098;21.006;2023-06-14T06:28:33;12.10;;;7.60;;
68126;SDS011;54931;52.098;21.006;2023-06-14T06:31:01;12.10;;;7.10;;
68126;SDS011;54931;52.098;21.006;2023-06-14T06:33:28;12.70;;;7.10;;
68126;SDS011;54931;52.098;21.006;2023-06-14T06:35:57;10.20;;;6.60;;
68126;SDS011;54931;52.098;21.006;2023-06-14T06:38:24;13.30;;;6.80;;
68126;SDS011;54931;52.098;21.006;2023-06-14T06:40:52;9.00;;;6.30;;
68126;SDS011;54931;52.098;21.006;2023-06-14T06:43:21;9.10;;;6.50;;
68126;SDS011;54931;52.098;21.006;2023-06-14T06:45:49;10.10;;;6.30;;
68126;SDS011;54931;52.098;21.006;2023-06-14T06:48:16;13.10;;;5.70;;
68126;SDS011;54931;52.098;21.006;2023-06-14T06:50:44;9.20;;;5.80;;
68126;SDS011;54931;52.098;21.006;2023-06-14T06:53:12;11.00;;;6.10;;
68126;SDS011;54931;52.098;21.006;2023-06-14T06:55:40;8.90;;;6.50;;
68126;SDS011;54931;52.098;21.006;2023-06-14T06:58:07;7.30;;;5.60;;
68126;SDS011;54931;52.098;21.006;2023-06-14T07:00:35;6.70;;;5.30;;
68126;SDS011;54931;52.098;21.006;2023-06-14T07:03:03;7.30;;;5.40;;
68126;SDS011;54931;52.098;21.006;2023-06-14T07:05:31;9.70;;;5.80;;
68126;SDS011;54931;52.098;21.006;2023-06-14T07:07:59;10.30;;;5.50;;
68126;SDS011;54931;52.098;21.006;2023-06-14T07:10:27;10.80;;;5.50;;
68126;SDS011;54931;52.098;21.006;2023-06-14T07:12:55;10.40;;;5.60;;
68126;SDS011;54931;52.098;21.006;2023-06-14T07:15:23;14.60;;;6.50;;
68126;SDS011;54931;52.098;21.006;2023-06-14T07:17:51;11.30;;;6.30;;
68126;SDS011;54931;52.098;21.006;2023-06-14T07:20:20;9.40;;;5.70;;
68126;SDS011;54931;52.098;21.006;2023-06-14T07:22:49;10.80;;;5.70;;
68126;SDS011;54931;52.098;21.006;2023-06-14T07:25:17;10.60;;;5.70;;
68126;SDS011;54931;52.098;21.006;2023-06-14T07:27:47;13.90;;;6.10;;
68126;SDS011;54931;52.098;21.006;2023-06-14T07:30:15;8.30;;;6.30;;
68126;SDS011;54931;52.098;21.006;2023-06-14T07:32:43;14.80;;;6.70;;
68126;SDS011;54931;52.098;21.006;2023-06-14T07:35:10;11.00;;;6.60;;
68126;SDS011;54931;52.098;21.006;2023-06-14T07:37:38;10.30;;;6.60;;
68126;SDS011;54931;52.098;21.006;2023-06-14T07:40:06;11.70;;;6.40;;
68126;SDS011;54931;52.098;21.006;2023-06-14T07:42:35;9.30;;;6.10;;
68126;SDS011;54931;52.098;21.006;2023-06-14T07:45:04;11.20;;;6.70;;
68126;SDS011;54931;52.098;21.006;2023-06-14T07:47:33;9.90;;;6.30;;
68126;SDS011;54931;52.098;21.006;2023-06-14T07:50:02;10.10;;;6.30;;
68126;SDS011;54931;52.098;21.006;2023-06-14T07:52:31;8.40;;;5.60;;
68126;SDS011;54931;52.098;21.006;2023-06-14T07:54:59;11.00;;;7.00;;
68126;SDS011;54931;52.098;21.006;2023-06-14T07:57:27;11.60;;;7.10;;
68126;SDS011;54931;52.098;21.006;2023-06-14T07:59:55;11.40;;;6.50;;
68126;SDS011;54931;52.098;21.006;2023-06-14T08:02:23;11.40;;;6.70;;
68126;SDS011;54931;52.098;21.006;2023-06-14T08:04:51;10.40;;;6.10;;
68126;SDS011;54931;52.098;21.006;2023-06-14T08:07:19;10.50;;;6.90;;
68126;SDS011;54931;52.098;21.006;2023-06-14T08:09:47;9.80;;;6.30;;
68126;SDS011;54931;52.098;21.006;2023-06-14T08:12:15;9.30;;;6.90;;
68126;SDS011;54931;52.098;21.006;2023-06-14T08:14:43;8.20;;;6.40;;
68126;SDS011;54931;52.098;21.006;2023-06-14T08:17:10;9.10;;;6.90;;
68126;SDS011;54931;52.098;21.006;2023-06-14T08:19:38;13.80;;;6.50;;
68126;SDS011;54931;52.098;21.006;2023-06-14T08:22:05;8.70;;;6.20;;
68126;SDS011;54931;52.098;21.006;2023-06-14T08:24:33;9.30;;;6.30;;
68126;SDS011;54931;52.098;21.006;2023-06-14T08:27:00;10.20;;;6.00;;
68126;SDS011;54931;52.098;21.006;2023-06-14T08:29:28;10.10;;;5.70;;
68126;SDS011;54931;52.098;21.006;2023-06-14T08:31:58;7.00;;;5.30;;
68126;SDS011;54931;52.098;21.006;2023-06-14T08:34:26;7.40;;;5.80;;
68126;SDS011;54931;52.098;21.006;2023-06-14T08:36:54;9.90;;;5.50;;
68126;SDS011;54931;52.098;21.006;2023-06-14T08:39:22;11.70;;;5.70;;
68126;SDS011;54931;52.098;21.006;2023-06-14T08:41:50;9.70;;;5.60;;
68126;SDS011;54931;52.098;21.006;2023-06-14T08:44:20;11.80;;;6.00;;
68126;SDS011;54931;52.098;21.006;2023-06-14T08:46:48;8.40;;;5.70;;
68126;SDS011;54931;52.098;21.006;2023-06-14T08:49:19;12.20;;;5.80;;
68126;SDS011;54931;52.098;21.006;2023-06-14T08:51:50;8.10;;;5.30;;
68126;SDS011;54931;52.098;21.006;2023-06-14T08:54:30;10.00;;;5.70;;
68126;SDS011;54931;52.098;21.006;2023-06-14T08:57:00;10.00;;;5.60;;
68126;SDS011;54931;52.098;21.006;2023-06-14T08:59:28;7.00;;;5.00;;
68126;SDS011;54931;52.098;21.006;2023-06-14T09:01:56;7.50;;;5.40;;
68126;SDS011;54931;52.098;21.006;2023-06-14T09:04:24;8.50;;;5.40;;
68126;SDS011;54931;52.098;21.006;2023-06-14T09:06:56;7.10;;;4.80;;
68126;SDS011;54931;52.098;21.006;2023-06-14T09:09:25;10.10;;;4.90;;
68126;SDS011;54931;52.098;21.006;2023-06-14T09:11:53;7.90;;;4.70;;
68126;SDS011;54931;52.098;21.006;2023-06-14T09:14:23;9.70;;;5.00;;
68126;SDS011;54931;52.098;21.006;2023-06-14T09:16:52;7.20;;;4.60;;
68126;SDS011;54931;52.098;21.006;2023-06-14T09:19:23;7.10;;;5.10;;
68126;SDS011;54931;52.098;21.006;2023-06-14T09:21:51;8.00;;;5.20;;
68126;SDS011;54931;52.098;21.006;2023-06-14T09:24:20;10.40;;;5.20;;
68126;SDS011;54931;52.098;21.006;2023-06-14T09:26:48;8.40;;;5.10;;
68126;SDS011;54931;52.098;21.006;2023-06-14T09:29:17;8.40;;;5.20;;
68126;SDS011;54931;52.098;21.006;2023-06-14T09:31:47;8.70;;;4.80;;
68126;SDS011;54931;52.098;21.006;2023-06-14T09:34:16;10.90;;;5.30;;
68126;SDS011;54931;52.098;21.006;2023-06-14T09:36:46;6.10;;;5.10;;
68126;SDS011;54931;52.098;21.006;2023-06-14T09:39:17;8.10;;;5.40;;
68126;SDS011;54931;52.098;21.006;2023-06-14T09:41:46;9.70;;;5.20;;
68126;SDS011;54931;52.098;21.006;2023-06-14T09:44:13;9.50;;;5.30;;
68126;SDS011;54931;52.098;21.006;2023-06-14T09:46:41;9.90;;;4.90;;
68126;SDS011;54931;52.098;21.006;2023-06-14T09:49:08;8.10;;;4.90;;
68126;SDS011;54931;52.098;21.006;2023-06-14T09:51:43;6.40;;;4.90;;
68126;SDS011;54931;52.098;21.006;2023-06-14T09:56:51;8.70;;;5.10;;
68126;SDS011;54931;52.098;21.006;2023-06-14T09:59:22;11.30;;;5.20;;
68126;SDS011;54931;52.098;21.006;2023-06-14T10:01:58;5.60;;;4.20;;
68126;SDS011;54931;52.098;21.006;2023-06-14T10:04:31;9.50;;;5.60;;
68126;SDS011;54931;52.098;21.006;2023-06-14T10:07:01;7.70;;;5.40;;
68126;SDS011;54931;52.098;21.006;2023-06-14T10:09:31;9.30;;;4.90;;
68126;SDS011;54931;52.098;21.006;2023-06-14T10:12:02;9.40;;;5.20;;
68126;SDS011;54931;52.098;21.006;2023-06-14T10:14:30;9.30;;;4.60;;
68126;SDS011;54931;52.098;21.006;2023-06-14T10:17:13;7.90;;;4.60;;
68126;SDS011;54931;52.098;21.006;2023-06-14T10:19:56;8.20;;;4.60;;
68126;SDS011;54931;52.098;21.006;2023-06-14T10:22:56;8.20;;;4.50;;
68126;SDS011;54931;52.098;21.006;2023-06-14T10:25:31;7.60;;;4.60;;
68126;SDS011;54931;52.098;21.006;2023-06-14T10:28:03;8.10;;;4.40;;
68126;SDS011;54931;52.098;21.006;2023-06-14T10:31:05;7.60;;;4.30;;
68126;SDS011;54931;52.098;21.006;2023-06-14T10:33:56;5.40;;;4.20;;
68126;SDS011;54931;52.098;21.006;2023-06-14T10:36:28;9.00;;;4.10;;
68126;SDS011;54931;52.098;21.006;2023-06-14T10:41:28;5.30;;;4.10;;
68126;SDS011;54931;52.098;21.006;2023-06-14T10:46:49;7.10;;;4.30;;
68126;SDS011;54931;52.098;21.006;2023-06-14T10:49:20;6.90;;;4.40;;
68126;SDS011;54931;52.098;21.006;2023-06-14T10:52:13;8.90;;;4.70;;
68126;SDS011;54931;52.098;21.006;2023-06-14T10:55:07;7.60;;;4.60;;
68126;SDS011;54931;52.098;21.006;2023-06-14T10:57:47;8.50;;;4.50;;
68126;SDS011;54931;52.098;21.006;2023-06-14T11:11:09;9.00;;;4.30;;
68126;SDS011;54931;52.098;21.006;2023-06-14T11:13:46;7.50;;;4.30;;
68126;SDS011;54931;52.098;21.006;2023-06-14T11:16:15;4.70;;;3.80;;
68126;SDS011;54931;52.098;21.006;2023-06-14T11:18:44;11.30;;;3.70;;
68126;SDS011;54931;52.098;21.006;2023-06-14T11:21:17;6.00;;;3.80;;
68126;SDS011;54931;52.098;21.006;2023-06-14T11:23:50;9.10;;;4.50;;
68126;SDS011;54931;52.098;21.006;2023-06-14T11:26:29;8.50;;;4.60;;
68126;SDS011;54931;52.098;21.006;2023-06-14T11:28:59;7.90;;;5.20;;
68126;SDS011;54931;52.098;21.006;2023-06-14T11:31:28;7.40;;;5.20;;
68126;SDS011;54931;52.098;21.006;2023-06-14T11:33:57;7.80;;;5.10;;
68126;SDS011;54931;52.098;21.006;2023-06-14T11:36:28;7.30;;;5.30;;
68126;SDS011;54931;52.098;21.006;2023-06-14T11:38:58;11.70;;;4.80;;
68126;SDS011;54931;52.098;21.006;2023-06-14T11:41:42;11.00;;;5.60;;
68126;SDS011;54931;52.098;21.006;2023-06-14T11:44:11;8.30;;;5.30;;
68126;SDS011;54931;52.098;21.006;2023-06-14T11:46:40;10.90;;;5.20;;
68126;SDS011;54931;52.098;21.006;2023-06-14T11:49:08;9.20;;;5.10;;
68126;SDS011;54931;52.098;21.006;2023-06-14T11:51:36;7.60;;;5.70;;
68126;SDS011;54931;52.098;21.006;2023-06-14T11:54:06;8.50;;;5.30;;
68126;SDS011;54931;52.098;21.006;2023-06-14T11:56:36;6.90;;;4.90;;
68126;SDS011;54931;52.098;21.006;2023-06-14T11:59:05;6.60;;;5.10;;
68126;SDS011;54931;52.098;21.006;2023-06-14T12:01:36;8.00;;;4.60;;
68126;SDS011;54931;52.098;21.006;2023-06-14T12:04:06;6.50;;;4.00;;
68126;SDS011;54931;52.098;21.006;2023-06-14T12:06:34;6.40;;;3.90;;
68126;SDS011;54931;52.098;21.006;2023-06-14T12:09:07;7.90;;;4.00;;
68126;SDS011;54931;52.098;21.006;2023-06-14T12:11:40;5.90;;;4.00;;
68126;SDS011;54931;52.098;21.006;2023-06-14T12:14:08;9.10;;;4.60;;
68126;SDS011;54931;52.098;21.006;2023-06-14T12:16:40;6.50;;;4.00;;
68126;SDS011;54931;52.098;21.006;2023-06-14T12:19:15;6.40;;;4.10;;
68126;SDS011;54931;52.098;21.006;2023-06-14T12:21:48;6.00;;;3.90;;
68126;SDS011;54931;52.098;21.006;2023-06-14T12:24:16;6.30;;;3.80;;
68126;SDS011;54931;52.098;21.006;2023-06-14T12:26:44;8.60;;;4.10;;
68126;SDS011;54931;52.098;21.006;2023-06-14T12:29:12;6.50;;;3.70;;
68126;SDS011;54931;52.098;21.006;2023-06-14T12:31:40;8.00;;;4.10;;
68126;SDS011;54931;52.098;21.006;2023-06-14T12:34:08;5.20;;;3.40;;
68126;SDS011;54931;52.098;21.006;2023-06-14T12:36:37;9.70;;;4.00;;
68126;SDS011;54931;52.098;21.006;2023-06-14T12:39:09;4.80;;;3.20;;
68126;SDS011;54931;52.098;21.006;2023-06-14T12:41:37;4.20;;;2.90;;
68126;SDS011;54931;52.098;21.006;2023-06-14T12:44:05;5.80;;;3.30;;
68126;SDS011;54931;52.098;21.006;2023-06-14T12:46:33;4.30;;;3.20;;
68126;SDS011;54931;52.098;21.006;2023-06-14T12:49:02;3.80;;;3.10;;
68126;SDS011;54931;52.098;21.006;2023-06-14T12:51:30;4.20;;;2.80;;
68126;SDS011;54931;52.098;21.006;2023-06-14T12:53:58;9.60;;;3.00;;
68126;SDS011;54931;52.098;21.006;2023-06-14T12:56:26;4.90;;;2.30;;
68126;SDS011;54931;52.098;21.006;2023-06-14T12:58:54;4.60;;;2.70;;
68126;SDS011;54931;52.098;21.006;2023-06-14T13:01:22;4.80;;;2.50;;
68126;SDS011;54931;52.098;21.006;2023-06-14T13:03:50;4.20;;;2.50;;
68126;SDS011;54931;52.098;21.006;2023-06-14T13:06:21;4.70;;;2.50;;
68126;SDS011;54931;52.098;21.006;2023-06-14T13:08:52;4.20;;;2.60;;
68126;SDS011;54931;52.098;21.006;2023-06-14T13:11:22;7.00;;;2.90;;
68126;SDS011;54931;52.098;21.006;2023-06-14T13:13:50;6.70;;;3.00;;
68126;SDS011;54931;52.098;21.006;2023-06-14T13:16:18;4.20;;;2.40;;
68126;SDS011;54931;52.098;21.006;2023-06-14T13:18:45;5.00;;;2.50;;
68126;SDS011;54931;52.098;21.006;2023-06-14T13:21:13;4.00;;;2.60;;
68126;SDS011;54931;52.098;21.006;2023-06-14T13:23:41;3.50;;;2.70;;
68126;SDS011;54931;52.098;21.006;2023-06-14T13:26:09;7.80;;;2.60;;
68126;SDS011;54931;52.098;21.006;2023-06-14T13:28:37;3.90;;;2.10;;
68126;SDS011;54931;52.098;21.006;2023-06-14T13:31:05;3.70;;;2.40;;
68126;SDS011;54931;52.098;21.006;2023-06-14T13:33:33;4.60;;;2.50;;
68126;SDS011;54931;52.098;21.006;2023-06-14T13:36:01;5.40;;;3.00;;
68126;SDS011;54931;52.098;21.006;2023-06-14T13:38:30;3.70;;;2.40;;
68126;SDS011;54931;52.098;21.006;2023-06-14T13:40:58;4.60;;;2.50;;
68126;SDS011;54931;52.098;21.006;2023-06-14T13:43:26;5.60;;;2.70;;
68126;SDS011;54931;52.098;21.006;2023-06-14T13:45:54;5.90;;;2.70;;
68126;SDS011;54931;52.098;21.006;2023-06-14T13:48:22;4.50;;;2.30;;
68126;SDS011;54931;52.098;21.006;2023-06-14T13:50:50;3.70;;;2.20;;
68126;SDS011;54931;52.098;21.006;2023-06-14T13:53:18;3.40;;;2.60;;
68126;SDS011;54931;52.098;21.006;2023-06-14T13:55:45;4.00;;;2.40;;
68126;SDS011;54931;52.098;21.006;2023-06-14T13:58:13;4.40;;;2.60;;
68126;SDS011;54931;52.098;21.006;2023-06-14T14:00:42;4.90;;;2.30;;
68126;SDS011;54931;52.098;21.006;2023-06-14T14:03:10;5.40;;;2.80;;
68126;SDS011;54931;52.098;21.006;2023-06-14T14:05:38;4.40;;;2.60;;
68126;SDS011;54931;52.098;21.006;2023-06-14T14:08:07;6.20;;;2.50;;
68126;SDS011;54931;52.098;21.006;2023-06-14T14:10:35;6.10;;;2.70;;
68126;SDS011;54931;52.098;21.006;2023-06-14T14:13:03;4.20;;;2.40;;
68126;SDS011;54931;52.098;21.006;2023-06-14T14:15:31;3.90;;;2.50;;
68126;SDS011;54931;52.098;21.006;2023-06-14T14:18:01;5.80;;;2.60;;
68126;SDS011;54931;52.098;21.006;2023-06-14T14:20:31;4.90;;;2.60;;
68126;SDS011;54931;52.098;21.006;2023-06-14T14:22:59;5.40;;;2.70;;
68126;SDS011;54931;52.098;21.006;2023-06-14T14:25:27;7.50;;;2.80;;
68126;SDS011;54931;52.098;21.006;2023-06-14T14:27:55;5.50;;;2.30;;
68126;SDS011;54931;52.098;21.006;2023-06-14T14:30:23;5.50;;;2.60;;
68126;SDS011;54931;52.098;21.006;2023-06-14T14:32:51;4.20;;;2.70;;
68126;SDS011;54931;52.098;21.006;2023-06-14T14:35:19;5.20;;;2.60;;
68126;SDS011;54931;52.098;21.006;2023-06-14T14:37:47;5.80;;;2.60;;
68126;SDS011;54931;52.098;21.006;2023-06-14T14:40:15;3.70;;;2.70;;
68126;SDS011;54931;52.098;21.006;2023-06-14T14:42:43;4.00;;;2.70;;
68126;SDS011;54931;52.098;21.006;2023-06-14T14:45:11;5.60;;;2.60;;
68126;SDS011;54931;52.098;21.006;2023-06-14T14:47:39;4.90;;;2.50;;
68126;SDS011;54931;52.098;21.006;2023-06-14T14:50:07;4.70;;;2.70;;
68126;SDS011;54931;52.098;21.006;2023-06-14T14:52:36;6.80;;;2.90;;
68126;SDS011;54931;52.098;21.006;2023-06-14T14:55:05;4.70;;;2.60;;
68126;SDS011;54931;52.098;21.006;2023-06-14T14:57:33;5.10;;;2.80;;
68126;SDS011;54931;52.098;21.006;2023-06-14T15:00:03;7.20;;;2.90;;
68126;SDS011;54931;52.098;21.006;2023-06-14T15:02:33;4.00;;;2.70;;
68126;SDS011;54931;52.098;21.006;2023-06-14T15:05:01;4.50;;;2.50;;